sensor_id;sensor_type;location;lat;lon;timestamp;P1;durP1;ratioP1;P2;durP2;ratioP2
28311;SDS011;15572;48.810;9.148;2022-12-24T00:01:01;6.73;;;1.20;;
28311;SDS011;15572;48.810;9.148;2022-12-24T00:05:58;11.53;;;1.70;;
28311;SDS011;15572;48.810;9.148;2022-12-24T00:10:55;5.27;;;1.70;;
28311;SDS011;15572;48.810;9.148;2022-12-24T00:15:52;6.73;;;1.50;;
28311;SDS011;15572;48.810;9.148;2022-12-24T00:20:48;5.27;;;1.40;;
28311;SDS011;15572;48.810;9.148;2022-12-24T00:25:45;5.00;;;1.50;;
28311;SDS011;15572;48.810;9.148;2022-12-24T00:30:43;4.70;;;1.37;;
28311;SDS011;15572;48.810;9.148;2022-12-24T00:35:39;7.90;;;1.70;;
28311;SDS011;15572;48.810;9.148;2022-12-24T00:40:36;7.97;;;1.60;;
28311;SDS011;15572;48.810;9.148;2022-12-24T00:45:33;6.63;;;1.60;;
28311;SDS011;15572;48.810;9.148;2022-12-24T00:50:30;8.37;;;1.80;;
28311;SDS011;15572;48.810;9.148;2022-12-24T00:55:27;7.27;;;1.50;;
28311;SDS011;15572;48.810;9.148;2022-12-24T01:00:23;7.97;;;1.50;;
28311;SDS011;15572;48.810;9.148;2022-12-24T01:05:20;3.80;;;1.40;;
28311;SDS011;15572;48.810;9.148;2022-12-24T01:10:18;5.70;;;1.70;;
28311;SDS011;15572;48.810;9.148;2022-12-24T01:15:15;9.17;;;1.70;;
28311;SDS011;15572;48.810;9.148;2022-12-24T01:20:13;6.23;;;1.50;;
28311;SDS011;15572;48.810;9.148;2022-12-24T01:25:11;9.43;;;1.80;;
28311;SDS011;15572;48.810;9.148;2022-12-24T01:30:10;6.40;;;1.67;;
28311;SDS011;15572;48.810;9.148;2022-12-24T01:35:09;10.30;;;1.63;;
28311;SDS011;15572;48.810;9.148;2022-12-24T01:40:07;6.77;;;1.97;;
28311;SDS011;15572;48.810;9.148;2022-12-24T01:45:41;4.00;;;1.40;;
28311;SDS011;15572;48.810;9.148;2022-12-24T01:50:41;6.20;;;1.43;;
28311;SDS011;15572;48.810;9.148;2022-12-24T01:55:39;9.53;;;2.00;;
28311;SDS011;15572;48.810;9.148;2022-12-24T02:00:36;6.10;;;1.60;;
28311;SDS011;15572;48.810;9.148;2022-12-24T02:05:35;13.20;;;2.37;;
28311;SDS011;15572;48.810;9.148;2022-12-24T02:10:37;10.67;;;1.90;;
28311;SDS011;15572;48.810;9.148;2022-12-24T02:15:37;7.70;;;1.50;;
28311;SDS011;15572;48.810;9.148;2022-12-24T02:20:49;9.83;;;2.13;;
28311;SDS011;15572;48.810;9.148;2022-12-24T02:26:17;8.90;;;1.70;;
28311;SDS011;15572;48.810;9.148;2022-12-24T02:31:30;8.03;;;1.63;;
28311;SDS011;15572;48.810;9.148;2022-12-24T02:36:32;6.07;;;1.73;;
28311;SDS011;15572;48.810;9.148;2022-12-24T02:41:32;9.73;;;1.90;;
28311;SDS011;15572;48.810;9.148;2022-12-24T02:46:46;10.83;;;2.20;;
28311;SDS011;15572;48.810;9.148;2022-12-24T02:51:44;9.60;;;2.17;;
28311;SDS011;15572;48.810;9.148;2022-12-24T02:56:46;9.10;;;1.93;;
28311;SDS011;15572;48.810;9.148;2022-12-24T03:01:53;7.87;;;2.00;;
28311;SDS011;15572;48.810;9.148;2022-12-24T03:06:56;9.40;;;1.93;;
28311;SDS011;15572;48.810;9.148;2022-12-24T03:12:00;8.90;;;2.00;;
28311;SDS011;15572;48.810;9.148;2022-12-24T03:17:04;11.33;;;1.97;;
28311;SDS011;15572;48.810;9.148;2022-12-24T03:22:01;12.93;;;2.20;;
28311;SDS011;15572;48.810;9.148;2022-12-24T03:27:02;11.17;;;4.90;;
28311;SDS011;15572;48.810;9.148;2022-12-24T03:32:01;14.57;;;2.23;;
28311;SDS011;15572;48.810;9.148;2022-12-24T03:37:00;10.20;;;2.03;;
28311;SDS011;15572;48.810;9.148;2022-12-24T03:41:56;8.77;;;1.97;;
28311;SDS011;15572;48.810;9.148;2022-12-24T03:46:53;12.17;;;2.57;;
28311;SDS011;15572;48.810;9.148;2022-12-24T03:51:51;10.83;;;2.30;;
28311;SDS011;15572;48.810;9.148;2022-12-24T03:56:47;10.37;;;2.10;;
28311;SDS011;15572;48.810;9.148;2022-12-24T04:01:44;10.50;;;2.23;;
28311;SDS011;15572;48.810;9.148;2022-12-24T04:06:40;8.03;;;1.90;;
28311;SDS011;15572;48.810;9.148;2022-12-24T04:11:38;9.57;;;1.90;;
28311;SDS011;15572;48.810;9.148;2022-12-24T04:16:34;16.00;;;2.40;;
28311;SDS011;15572;48.810;9.148;2022-12-24T04:21:31;9.63;;;2.23;;
28311;SDS011;15572;48.810;9.148;2022-12-24T04:26:27;17.40;;;2.17;;
28311;SDS011;15572;48.810;9.148;2022-12-24T04:31:25;11.83;;;2.27;;
28311;SDS011;15572;48.810;9.148;2022-12-24T04:36:22;11.77;;;2.40;;
28311;SDS011;15572;48.810;9.148;2022-12-24T04:41:18;9.03;;;2.43;;
28311;SDS011;15572;48.810;9.148;2022-12-24T04:46:18;12.73;;;2.60;;
28311;SDS011;15572;48.810;9.148;2022-12-24T04:51:17;10.17;;;2.63;;
28311;SDS011;15572;48.810;9.148;2022-12-24T04:56:15;11.80;;;2.73;;
28311;SDS011;15572;48.810;9.148;2022-12-24T05:01:14;10.83;;;2.53;;
28311;SDS011;15572;48.810;9.148;2022-12-24T05:06:13;7.03;;;2.40;;
28311;SDS011;15572;48.810;9.148;2022-12-24T05:11:13;7.80;;;2.10;;
28311;SDS011;15572;48.810;9.148;2022-12-24T05:16:10;9.43;;;1.97;;
28311;SDS011;15572;48.810;9.148;2022-12-24T05:21:08;7.70;;;1.90;;
28311;SDS011;15572;48.810;9.148;2022-12-24T05:26:09;8.17;;;1.83;;
28311;SDS011;15572;48.810;9.148;2022-12-24T05:31:17;8.13;;;2.23;;
28311;SDS011;15572;48.810;9.148;2022-12-24T05:36:14;9.10;;;1.90;;
28311;SDS011;15572;48.810;9.148;2022-12-24T05:41:12;6.17;;;1.87;;
28311;SDS011;15572;48.810;9.148;2022-12-24T05:46:09;9.00;;;1.77;;
28311;SDS011;15572;48.810;9.148;2022-12-24T05:51:08;12.73;;;2.00;;
28311;SDS011;15572;48.810;9.148;2022-12-24T05:56:06;9.97;;;1.93;;
28311;SDS011;15572;48.810;9.148;2022-12-24T06:01:05;8.67;;;1.90;;
28311;SDS011;15572;48.810;9.148;2022-12-24T06:06:04;6.43;;;1.97;;
28311;SDS011;15572;48.810;9.148;2022-12-24T06:11:02;13.83;;;2.27;;
28311;SDS011;15572;48.810;9.148;2022-12-24T06:16:01;8.67;;;1.90;;
28311;SDS011;15572;48.810;9.148;2022-12-24T06:21:00;8.93;;;1.70;;
28311;SDS011;15572;48.810;9.148;2022-12-24T06:25:57;12.33;;;2.27;;
28311;SDS011;15572;48.810;9.148;2022-12-24T06:30:55;11.17;;;2.03;;
28311;SDS011;15572;48.810;9.148;2022-12-24T06:35:52;10.53;;;2.23;;
28311;SDS011;15572;48.810;9.148;2022-12-24T06:40:50;9.77;;;2.23;;
28311;SDS011;15572;48.810;9.148;2022-12-24T06:45:47;11.63;;;2.03;;
28311;SDS011;15572;48.810;9.148;2022-12-24T06:50:43;11.90;;;2.60;;
28311;SDS011;15572;48.810;9.148;2022-12-24T06:55:40;9.60;;;2.03;;
28311;SDS011;15572;48.810;9.148;2022-12-24T07:00:38;8.13;;;1.80;;
28311;SDS011;15572;48.810;9.148;2022-12-24T07:05:35;9.27;;;2.30;;
28311;SDS011;15572;48.810;9.148;2022-12-24T07:10:31;9.83;;;2.30;;
28311;SDS011;15572;48.810;9.148;2022-12-24T07:15:29;12.87;;;2.57;;
28311;SDS011;15572;48.810;9.148;2022-12-24T07:20:26;7.03;;;1.97;;
28311;SDS011;15572;48.810;9.148;2022-12-24T07:25:23;12.73;;;2.10;;
28311;SDS011;15572;48.810;9.148;2022-12-24T07:30:19;4.93;;;1.90;;
28311;SDS011;15572;48.810;9.148;2022-12-24T07:35:16;9.10;;;1.90;;
28311;SDS011;15572;48.810;9.148;2022-12-24T07:40:14;6.20;;;2.00;;
28311;SDS011;15572;48.810;9.148;2022-12-24T07:45:10;9.67;;;2.10;;
28311;SDS011;15572;48.810;9.148;2022-12-24T07:50:07;16.37;;;2.73;;
28311;SDS011;15572;48.810;9.148;2022-12-24T07:55:04;10.47;;;2.70;;
28311;SDS011;15572;48.810;9.148;2022-12-24T08:00:03;8.40;;;2.70;;
28311;SDS011;15572;48.810;9.148;2022-12-24T08:05:00;8.60;;;2.40;;
28311;SDS011;15572;48.810;9.148;2022-12-24T08:09:57;9.80;;;2.10;;
28311;SDS011;15572;48.810;9.148;2022-12-24T08:14:53;10.13;;;2.47;;
28311;SDS011;15572;48.810;9.148;2022-12-24T08:19:51;6.47;;;2.20;;
28311;SDS011;15572;48.810;9.148;2022-12-24T08:24:47;9.90;;;2.33;;
28311;SDS011;15572;48.810;9.148;2022-12-24T08:29:44;9.13;;;2.40;;
28311;SDS011;15572;48.810;9.148;2022-12-24T08:34:40;7.57;;;2.37;;
28311;SDS011;15572;48.810;9.148;2022-12-24T08:39:38;12.67;;;3.73;;
28311;SDS011;15572;48.810;9.148;2022-12-24T08:44:35;10.27;;;2.87;;
28311;SDS011;15572;48.810;9.148;2022-12-24T08:49:31;13.80;;;3.30;;
28311;SDS011;15572;48.810;9.148;2022-12-24T08:54:27;7.90;;;2.50;;
28311;SDS011;15572;48.810;9.148;2022-12-24T08:59:25;8.37;;;2.13;;
28311;SDS011;15572;48.810;9.148;2022-12-24T09:04:22;11.73;;;2.40;;
28311;SDS011;15572;48.810;9.148;2022-12-24T09:09:18;9.40;;;2.50;;
28311;SDS011;15572;48.810;9.148;2022-12-24T09:14:15;8.43;;;2.30;;
28311;SDS011;15572;48.810;9.148;2022-12-24T09:19:12;11.30;;;2.40;;
28311;SDS011;15572;48.810;9.148;2022-12-24T09:24:09;12.23;;;2.60;;
28311;SDS011;15572;48.810;9.148;2022-12-24T09:29:05;10.57;;;2.47;;
28311;SDS011;15572;48.810;9.148;2022-12-24T09:34:02;11.17;;;2.83;;
28311;SDS011;15572;48.810;9.148;2022-12-24T09:39:00;8.17;;;2.73;;
28311;SDS011;15572;48.810;9.148;2022-12-24T09:43:58;11.83;;;2.47;;
28311;SDS011;15572;48.810;9.148;2022-12-24T09:49:02;10.77;;;2.43;;
28311;SDS011;15572;48.810;9.148;2022-12-24T09:54:02;9.90;;;2.47;;
28311;SDS011;15572;48.810;9.148;2022-12-24T09:59:08;10.97;;;2.60;;
28311;SDS011;15572;48.810;9.148;2022-12-24T10:04:09;15.23;;;2.63;;
28311;SDS011;15572;48.810;9.148;2022-12-24T10:09:11;7.13;;;2.00;;
28311;SDS011;15572;48.810;9.148;2022-12-24T10:14:22;11.13;;;2.17;;
28311;SDS011;15572;48.810;9.148;2022-12-24T10:19:27;8.40;;;2.33;;
28311;SDS011;15572;48.810;9.148;2022-12-24T10:24:38;9.30;;;2.30;;
28311;SDS011;15572;48.810;9.148;2022-12-24T10:29:41;14.17;;;2.97;;
28311;SDS011;15572;48.810;9.148;2022-12-24T10:34:42;10.70;;;2.20;;
28311;SDS011;15572;48.810;9.148;2022-12-24T10:39:41;8.63;;;2.33;;
28311;SDS011;15572;48.810;9.148;2022-12-24T10:44:38;13.20;;;2.60;;
28311;SDS011;15572;48.810;9.148;2022-12-24T10:49:35;12.53;;;2.33;;
28311;SDS011;15572;48.810;9.148;2022-12-24T10:55:02;11.50;;;2.30;;
28311;SDS011;15572;48.810;9.148;2022-12-24T11:00:02;17.90;;;2.40;;
28311;SDS011;15572;48.810;9.148;2022-12-24T11:05:00;10.93;;;2.10;;
28311;SDS011;15572;48.810;9.148;2022-12-24T11:10:01;13.80;;;1.77;;
28311;SDS011;15572;48.810;9.148;2022-12-24T11:15:03;7.97;;;2.70;;
28311;SDS011;15572;48.810;9.148;2022-12-24T11:20:02;11.03;;;2.50;;
28311;SDS011;15572;48.810;9.148;2022-12-24T11:25:04;13.13;;;2.30;;
28311;SDS011;15572;48.810;9.148;2022-12-24T11:35:20;8.30;;;2.20;;
28311;SDS011;15572;48.810;9.148;2022-12-24T11:40:22;10.40;;;2.40;;
28311;SDS011;15572;48.810;9.148;2022-12-24T11:45:21;5.97;;;1.90;;
28311;SDS011;15572;48.810;9.148;2022-12-24T11:50:22;8.23;;;2.10;;
28311;SDS011;15572;48.810;9.148;2022-12-24T11:55:23;11.70;;;2.20;;
28311;SDS011;15572;48.810;9.148;2022-12-24T12:00:29;12.70;;;2.40;;
28311;SDS011;15572;48.810;9.148;2022-12-24T12:05:26;9.97;;;2.30;;
28311;SDS011;15572;48.810;9.148;2022-12-24T12:10:26;8.77;;;2.07;;
28311;SDS011;15572;48.810;9.148;2022-12-24T12:15:27;10.27;;;2.20;;
28311;SDS011;15572;48.810;9.148;2022-12-24T12:20:29;8.53;;;2.20;;
28311;SDS011;15572;48.810;9.148;2022-12-24T12:25:31;9.27;;;2.57;;
28311;SDS011;15572;48.810;9.148;2022-12-24T12:30:33;12.30;;;2.70;;
28311;SDS011;15572;48.810;9.148;2022-12-24T12:35:33;10.40;;;2.70;;
28311;SDS011;15572;48.810;9.148;2022-12-24T12:40:45;8.57;;;2.40;;
28311;SDS011;15572;48.810;9.148;2022-12-24T12:45:53;11.93;;;2.60;;
28311;SDS011;15572;48.810;9.148;2022-12-24T12:50:54;11.67;;;2.77;;
28311;SDS011;15572;48.810;9.148;2022-12-24T12:55:58;14.40;;;3.00;;
28311;SDS011;15572;48.810;9.148;2022-12-24T13:01:05;11.53;;;3.23;;
28311;SDS011;15572;48.810;9.148;2022-12-24T13:06:13;11.93;;;3.17;;
28311;SDS011;15572;48.810;9.148;2022-12-24T13:11:38;10.63;;;3.27;;
28311;SDS011;15572;48.810;9.148;2022-12-24T13:16:55;12.27;;;2.83;;
28311;SDS011;15572;48.810;9.148;2022-12-24T13:21:59;10.07;;;3.17;;
28311;SDS011;15572;48.810;9.148;2022-12-24T13:27:13;10.40;;;2.97;;
28311;SDS011;15572;48.810;9.148;2022-12-24T13:37:45;9.50;;;2.00;;
28311;SDS011;15572;48.810;9.148;2022-12-24T13:42:50;8.13;;;1.77;;
28311;SDS011;15572;48.810;9.148;2022-12-24T13:48:01;10.90;;;2.23;;
28311;SDS011;15572;48.810;9.148;2022-12-24T13:53:18;9.97;;;2.37;;
28311;SDS011;15572;48.810;9.148;2022-12-24T13:58:19;8.23;;;2.17;;
28311;SDS011;15572;48.810;9.148;2022-12-24T14:03:23;13.77;;;2.60;;
28311;SDS011;15572;48.810;9.148;2022-12-24T14:08:30;11.37;;;2.47;;
28311;SDS011;15572;48.810;9.148;2022-12-24T14:19:11;11.80;;;2.33;;
28311;SDS011;15572;48.810;9.148;2022-12-24T14:24:12;10.10;;;3.07;;
28311;SDS011;15572;48.810;9.148;2022-12-24T14:29:14;13.10;;;3.20;;
28311;SDS011;15572;48.810;9.148;2022-12-24T14:34:14;12.70;;;3.20;;
28311;SDS011;15572;48.810;9.148;2022-12-24T14:39:20;12.27;;;3.10;;
28311;SDS011;15572;48.810;9.148;2022-12-24T14:44:22;13.20;;;4.07;;
28311;SDS011;15572;48.810;9.148;2022-12-24T14:49:34;9.77;;;3.60;;
28311;SDS011;15572;48.810;9.148;2022-12-24T14:54:39;13.70;;;3.83;;
28311;SDS011;15572;48.810;9.148;2022-12-24T14:59:42;17.60;;;3.53;;
28311;SDS011;15572;48.810;9.148;2022-12-24T15:04:43;14.97;;;3.90;;
28311;SDS011;15572;48.810;9.148;2022-12-24T15:09:39;12.97;;;3.73;;
28311;SDS011;15572;48.810;9.148;2022-12-24T15:14:39;24.93;;;11.97;;
28311;SDS011;15572;48.810;9.148;2022-12-24T15:19:38;17.23;;;7.40;;
28311;SDS011;15572;48.810;9.148;2022-12-24T15:24:44;21.17;;;5.97;;
28311;SDS011;15572;48.810;9.148;2022-12-24T15:29:42;17.70;;;5.37;;
28311;SDS011;15572;48.810;9.148;2022-12-24T15:34:40;14.53;;;4.77;;
28311;SDS011;15572;48.810;9.148;2022-12-24T15:39:38;15.70;;;4.90;;
28311;SDS011;15572;48.810;9.148;2022-12-24T15:44:36;17.20;;;5.97;;
28311;SDS011;15572;48.810;9.148;2022-12-24T15:49:35;20.43;;;5.70;;
28311;SDS011;15572;48.810;9.148;2022-12-24T15:54:32;16.50;;;5.07;;
28311;SDS011;15572;48.810;9.148;2022-12-24T15:59:30;15.17;;;4.70;;
28311;SDS011;15572;48.810;9.148;2022-12-24T16:04:31;18.47;;;5.80;;
28311;SDS011;15572;48.810;9.148;2022-12-24T16:09:29;21.53;;;6.40;;
28311;SDS011;15572;48.810;9.148;2022-12-24T16:14:36;16.13;;;6.13;;
28311;SDS011;15572;48.810;9.148;2022-12-24T16:19:36;14.93;;;5.60;;
28311;SDS011;15572;48.810;9.148;2022-12-24T16:24:34;16.10;;;5.20;;
28311;SDS011;15572;48.810;9.148;2022-12-24T16:29:30;19.63;;;6.40;;
28311;SDS011;15572;48.810;9.148;2022-12-24T16:34:28;18.20;;;6.43;;
28311;SDS011;15572;48.810;9.148;2022-12-24T16:39:29;20.10;;;7.07;;
28311;SDS011;15572;48.810;9.148;2022-12-24T16:44:27;17.93;;;6.53;;
28311;SDS011;15572;48.810;9.148;2022-12-24T16:49:24;17.43;;;5.67;;
28311;SDS011;15572;48.810;9.148;2022-12-24T16:54:20;14.83;;;6.27;;
28311;SDS011;15572;48.810;9.148;2022-12-24T16:59:19;14.80;;;4.83;;
28311;SDS011;15572;48.810;9.148;2022-12-24T17:04:17;13.10;;;4.83;;
28311;SDS011;15572;48.810;9.148;2022-12-24T17:09:14;16.37;;;6.10;;
28311;SDS011;15572;48.810;9.148;2022-12-24T17:14:11;19.00;;;7.20;;
28311;SDS011;15572;48.810;9.148;2022-12-24T17:19:09;20.47;;;9.90;;
28311;SDS011;15572;48.810;9.148;2022-12-24T17:24:06;20.20;;;7.10;;
28311;SDS011;15572;48.810;9.148;2022-12-24T17:29:03;16.23;;;6.37;;
28311;SDS011;15572;48.810;9.148;2022-12-24T17:34:00;21.40;;;8.37;;
28311;SDS011;15572;48.810;9.148;2022-12-24T17:38:58;17.83;;;6.30;;
28311;SDS011;15572;48.810;9.148;2022-12-24T17:43:54;28.50;;;13.03;;
28311;SDS011;15572;48.810;9.148;2022-12-24T17:48:51;22.50;;;9.97;;
28311;SDS011;15572;48.810;9.148;2022-12-24T17:53:48;20.80;;;7.50;;
28311;SDS011;15572;48.810;9.148;2022-12-24T17:58:46;15.00;;;7.73;;
28311;SDS011;15572;48.810;9.148;2022-12-24T18:03:42;21.87;;;7.77;;
28311;SDS011;15572;48.810;9.148;2022-12-24T18:08:40;24.50;;;10.33;;
28311;SDS011;15572;48.810;9.148;2022-12-24T18:13:37;24.27;;;11.67;;
28311;SDS011;15572;48.810;9.148;2022-12-24T18:18:35;25.03;;;12.47;;
28311;SDS011;15572;48.810;9.148;2022-12-24T18:23:31;9.97;;;3.70;;
28311;SDS011;15572;48.810;9.148;2022-12-24T18:28:28;15.13;;;4.73;;
28311;SDS011;15572;48.810;9.148;2022-12-24T18:33:25;10.50;;;3.20;;
28311;SDS011;15572;48.810;9.148;2022-12-24T18:38:23;7.20;;;2.70;;
28311;SDS011;15572;48.810;9.148;2022-12-24T18:43:19;9.50;;;2.73;;
28311;SDS011;15572;48.810;9.148;2022-12-24T18:48:16;8.33;;;2.80;;
28311;SDS011;15572;48.810;9.148;2022-12-24T18:53:12;13.77;;;2.80;;
28311;SDS011;15572;48.810;9.148;2022-12-24T18:58:10;7.60;;;2.73;;
28311;SDS011;15572;48.810;9.148;2022-12-24T19:03:06;8.07;;;3.00;;
28311;SDS011;15572;48.810;9.148;2022-12-24T19:08:03;7.13;;;2.90;;
28311;SDS011;15572;48.810;9.148;2022-12-24T19:13:00;6.07;;;2.70;;
28311;SDS011;15572;48.810;9.148;2022-12-24T19:17:57;5.87;;;2.70;;
28311;SDS011;15572;48.810;9.148;2022-12-24T19:22:54;4.93;;;2.57;;
28311;SDS011;15572;48.810;9.148;2022-12-24T19:27:50;6.83;;;3.30;;
28311;SDS011;15572;48.810;9.148;2022-12-24T19:32:47;7.73;;;3.10;;
28311;SDS011;15572;48.810;9.148;2022-12-24T19:37:45;6.47;;;3.00;;
28311;SDS011;15572;48.810;9.148;2022-12-24T19:42:41;5.13;;;3.30;;
28311;SDS011;15572;48.810;9.148;2022-12-24T19:47:39;4.53;;;2.70;;
28311;SDS011;15572;48.810;9.148;2022-12-24T19:52:35;5.13;;;3.00;;
28311;SDS011;15572;48.810;9.148;2022-12-24T19:57:33;4.60;;;2.57;;
28311;SDS011;15572;48.810;9.148;2022-12-24T20:02:31;4.87;;;2.60;;
28311;SDS011;15572;48.810;9.148;2022-12-24T20:07:27;9.37;;;2.90;;
28311;SDS011;15572;48.810;9.148;2022-12-24T20:12:24;5.07;;;2.97;;
28311;SDS011;15572;48.810;9.148;2022-12-24T20:17:22;6.23;;;3.10;;
28311;SDS011;15572;48.810;9.148;2022-12-24T20:22:18;3.53;;;2.20;;
28311;SDS011;15572;48.810;9.148;2022-12-24T20:27:15;4.80;;;2.30;;
28311;SDS011;15572;48.810;9.148;2022-12-24T20:32:11;6.03;;;2.70;;
28311;SDS011;15572;48.810;9.148;2022-12-24T20:37:09;4.63;;;2.77;;
28311;SDS011;15572;48.810;9.148;2022-12-24T20:42:05;4.83;;;2.93;;
28311;SDS011;15572;48.810;9.148;2022-12-24T20:47:02;6.87;;;3.00;;
28311;SDS011;15572;48.810;9.148;2022-12-24T20:51:58;5.50;;;3.33;;
28311;SDS011;15572;48.810;9.148;2022-12-24T20:56:56;4.33;;;2.50;;
28311;SDS011;15572;48.810;9.148;2022-12-24T21:01:53;4.17;;;2.83;;
28311;SDS011;15572;48.810;9.148;2022-12-24T21:06:49;5.00;;;2.93;;
28311;SDS011;15572;48.810;9.148;2022-12-24T21:11:46;2.90;;;2.30;;
28311;SDS011;15572;48.810;9.148;2022-12-24T21:17:01;5.53;;;2.57;;
28311;SDS011;15572;48.810;9.148;2022-12-24T21:21:58;4.77;;;2.60;;
28311;SDS011;15572;48.810;9.148;2022-12-24T21:26:54;5.07;;;2.50;;
28311;SDS011;15572;48.810;9.148;2022-12-24T21:31:51;9.90;;;3.63;;
28311;SDS011;15572;48.810;9.148;2022-12-24T21:36:48;4.00;;;2.70;;
28311;SDS011;15572;48.810;9.148;2022-12-24T21:41:45;4.43;;;2.50;;
28311;SDS011;15572;48.810;9.148;2022-12-24T21:46:41;8.30;;;3.60;;
28311;SDS011;15572;48.810;9.148;2022-12-24T21:51:38;5.80;;;2.67;;
28311;SDS011;15572;48.810;9.148;2022-12-24T21:56:37;3.57;;;2.00;;
28311;SDS011;15572;48.810;9.148;2022-12-24T22:01:47;5.40;;;2.03;;
28311;SDS011;15572;48.810;9.148;2022-12-24T22:06:44;3.33;;;1.80;;
28311;SDS011;15572;48.810;9.148;2022-12-24T22:11:59;4.50;;;1.90;;
28311;SDS011;15572;48.810;9.148;2022-12-24T22:16:56;4.73;;;2.27;;
28311;SDS011;15572;48.810;9.148;2022-12-24T22:21:52;5.17;;;1.97;;
28311;SDS011;15572;48.810;9.148;2022-12-24T22:26:49;7.63;;;2.30;;
28311;SDS011;15572;48.810;9.148;2022-12-24T22:31:46;4.20;;;2.37;;
28311;SDS011;15572;48.810;9.148;2022-12-24T22:36:43;4.53;;;2.20;;
28311;SDS011;15572;48.810;9.148;2022-12-24T22:41:39;4.93;;;1.83;;
28311;SDS011;15572;48.810;9.148;2022-12-24T22:46:36;4.57;;;2.33;;
28311;SDS011;15572;48.810;9.148;2022-12-24T22:51:34;3.13;;;2.10;;
28311;SDS011;15572;48.810;9.148;2022-12-24T22:56:31;4.23;;;2.20;;
28311;SDS011;15572;48.810;9.148;2022-12-24T23:01:31;3.47;;;1.80;;
28311;SDS011;15572;48.810;9.148;2022-12-24T23:06:29;2.97;;;1.93;;
28311;SDS011;15572;48.810;9.148;2022-12-24T23:11:27;4.67;;;1.80;;
28311;SDS011;15572;48.810;9.148;2022-12-24T23:16:24;2.43;;;1.50;;
28311;SDS011;15572;48.810;9.148;2022-12-24T23:21:21;2.53;;;1.60;;
28311;SDS011;15572;48.810;9.148;2022-12-24T23:26:18;4.63;;;1.57;;
28311;SDS011;15572;48.810;9.148;2022-12-24T23:31:18;2.53;;;1.60;;
28311;SDS011;15572;48.810;9.148;2022-12-24T23:36:15;2.00;;;1.37;;
28311;SDS011;15572;48.810;9.148;2022-12-24T23:41:12;3.73;;;1.60;;
28311;SDS011;15572;48.810;9.148;2022-12-24T23:46:12;2.93;;;1.93;;
28311;SDS011;15572;48.810;9.148;2022-12-24T23:51:11;3.70;;;1.40;;
28311;SDS011;15572;48.810;9.148;2022-12-24T23:56:10;1.87;;;1.60;;
